Terminal Aerodrome Forecast
Issued by NWS Bismarck, ND

Home | Current Version | Previous Version | Text Only | Print | Product List | Glossary Off
Versions: 1 2 3 4 5 6 7 8 9 10 11 12 13 14 15 16 17 18 19 20 21

979
FTUS43 KBIS 161105 AAA
TAFISN
TAF AMD
KISN 161105Z 1611/1706 31009KT P6SM BKN030 OVC130
     FM161400 30009KT P6SM OVC050
     FM161700 30007KT P6SM SCT250=

USA.gov is the U.S. government's official web portal to all federal, state and local government web resources and services.